This is the latest recevied weather packets stored in our database for station/object IW0REF-8. If no packets are shown the sender has not sent any weather packets the latest 10 day(s).
| Time | Temp. | Humidity | Pressure | Rain* | Wind** | Luminosity | Snow |
|---|---|---|---|---|---|---|---|
| 1777467433 | 26.11° C | 18% | 1014.7 hPa | - | - | - | - |
| 1777466531 | 26.11° C | 16% | 1014.6 hPa | - | - | - | - |
| 1777465627 | 26.11° C | 16% | 1014.7 hPa | - | - | - | - |
| 1777464727 | 25.56° C | 15% | 1014.4 hPa | - | - | - | - |
| 1777463827 | 26.67° C | 16% | 1014.6 hPa | - | - | - | - |
| 1777462927 | 26.11° C | 15% | 1014.4 hPa | - | - | - | - |
| 1777462027 | 26.11° C | 15% | 1014.8 hPa | - | - | - | - |
| 1777461127 | 27.78° C | 20% | 1016.2 hPa | - | - | - | - |
| 1777460227 | 27.78° C | 22% | 1016.8 hPa | - | - | - | - |
| 1777459326 | 27.78° C | 21% | 1016.7 hPa | - | - | - | - |
| 1777458426 | 27.78° C | 22% | 1016.8 hPa | - | - | - | - |
| 1777457526 | 26.67° C | 22% | 1016.9 hPa | - | - | - | - |
| 1777456626 | 26.67° C | 22% | 1017.2 hPa | - | - | - | - |
| 1777455726 | 26.11° C | 24% | 1017.8 hPa | - | - | - | - |
| 1777454826 | 25.56° C | 28% | 1018.7 hPa | - | - | - | - |
| 1777453926 | 24.44° C | 29% | 1018.9 hPa | - | - | - | - |
| 1777453026 | 24.44° C | 31% | 1019.3 hPa | - | - | - | - |
| 1777452125 | 22.22° C | 33% | 1019.9 hPa | - | - | - | - |
| 1777451225 | 22.78° C | 34% | 1019.9 hPa | - | - | - | - |
| 1777450324 | 21.67° C | 33% | 1019.9 hPa | - | - | - | - |
| 1777449420 | 21.11° C | 35% | 1020.2 hPa | - | - | - | - |
| 1777447620 | 20.56° C | 36% | 1020.2 hPa | - | - | - | - |
| 1777446720 | 19.44° C | 37% | 1020.6 hPa | - | - | - | - |
| 1777445819 | 19.44° C | 35% | 1020.2 hPa | - | - | - | - |
| 1777444920 | 18.33° C | 37% | 1020.6 hPa | - | - | - | - |
* Rain since midnight (hover to see other rain measurements)
** Current wind speed in m/s (hover to see current wind gust speed)